createdAt,value
2019-06-01T00:00:16.532Z,13.30
2019-06-01T00:02:56.015Z,13.27
2019-06-01T00:05:24.952Z,13.21
2019-06-01T00:07:57.512Z,13.16
2019-06-01T00:10:30.722Z,13.13
2019-06-01T00:13:03.352Z,13.15
2019-06-01T00:15:35.912Z,13.17
2019-06-01T00:18:09.492Z,13.21
2019-06-01T00:20:42.219Z,13.18
2019-06-01T00:23:14.705Z,13.15
2019-06-01T00:25:48.696Z,13.10
2019-06-01T00:28:21.722Z,13.09
2019-06-01T00:30:54.345Z,13.08
2019-06-01T00:33:26.872Z,13.06
2019-06-01T00:35:59.370Z,13.06
2019-06-01T00:38:32.032Z,13.11
2019-06-01T00:41:04.435Z,13.16
2019-06-01T00:43:36.942Z,13.14
2019-06-01T00:46:09.443Z,13.18
2019-06-01T00:48:43.723Z,13.19
2019-06-01T00:51:16.241Z,13.20
2019-06-01T00:53:49.563Z,13.19
2019-06-01T00:56:22.470Z,13.22
2019-06-01T00:58:55.342Z,13.15
2019-06-01T01:01:28.402Z,13.05
2019-06-01T01:04:01.192Z,12.98
2019-06-01T01:06:34.174Z,12.92
2019-06-01T01:09:10.062Z,12.89
2019-06-01T01:11:43.135Z,12.81
2019-06-01T01:14:16.749Z,12.78
2019-06-01T01:16:49.501Z,12.73
2019-06-01T01:19:21.872Z,12.66
2019-06-01T01:21:56.320Z,12.61
2019-06-01T01:24:28.942Z,12.61
2019-06-01T01:27:01.553Z,12.57
2019-06-01T01:29:33.994Z,12.53
2019-06-01T01:32:06.522Z,12.51
2019-06-01T01:34:39.023Z,12.48
2019-06-01T01:37:11.703Z,12.43
2019-06-01T01:39:44.072Z,12.37
2019-06-01T01:42:16.572Z,12.30
2019-06-01T01:44:50.308Z,12.29
2019-06-01T01:47:23.263Z,12.25
2019-06-01T01:49:56.154Z,12.25
2019-06-01T01:52:28.800Z,12.26
2019-06-01T01:55:01.353Z,12.30
2019-06-01T01:57:34.172Z,12.32
2019-06-01T02:00:09.222Z,12.37
2019-06-01T02:02:42.015Z,12.35
2019-06-01T02:05:14.800Z,12.36
2019-06-01T02:07:47.553Z,12.27
2019-06-01T02:10:20.326Z,12.23
2019-06-01T02:12:53.573Z,12.20
2019-06-01T02:15:26.363Z,12.17
2019-06-01T02:18:00.221Z,12.14
2019-06-01T02:20:33.382Z,12.11
2019-06-01T02:23:06.524Z,12.09
2019-06-01T02:25:39.403Z,12.09
2019-06-01T02:28:12.622Z,12.06
2019-06-01T02:30:45.414Z,12.15
2019-06-01T02:33:18.258Z,12.16
2019-06-01T02:35:50.873Z,12.16
2019-06-01T02:38:23.782Z,12.14
2019-06-01T02:40:57.121Z,12.15
2019-06-01T02:43:30.945Z,12.17
2019-06-01T02:46:06.621Z,12.16
2019-06-01T02:48:38.053Z,12.19
2019-06-01T02:51:10.685Z,12.20
2019-06-01T02:53:43.423Z,12.20
2019-06-01T02:56:16.792Z,12.17
2019-06-01T02:58:50.506Z,12.16
2019-06-01T03:01:38.339Z,12.18
2019-06-01T03:04:12.292Z,12.22
2019-06-01T03:06:45.862Z,12.22
2019-06-01T03:09:20.062Z,12.27
2019-06-01T03:11:55.673Z,12.30
2019-06-01T03:14:30.332Z,12.35
2019-06-01T03:17:05.874Z,12.39
2019-06-01T03:19:41.092Z,12.46
2019-06-01T03:22:16.262Z,12.60
2019-06-01T03:24:51.472Z,12.75
2019-06-01T03:27:25.423Z,12.88
2019-06-01T03:30:00.334Z,13.03
2019-06-01T03:32:37.199Z,13.16
2019-06-01T03:35:09.224Z,13.26
2019-06-01T03:37:43.313Z,13.34
2019-06-01T03:40:23.847Z,13.41
2019-06-01T03:42:51.142Z,13.49
2019-06-01T03:45:23.874Z,13.58
2019-06-01T03:47:56.792Z,13.61
2019-06-01T03:50:29.772Z,13.61
2019-06-01T03:53:03.757Z,13.63
2019-06-01T03:55:36.732Z,13.72
2019-06-01T03:58:09.372Z,13.89
2019-06-01T04:00:42.243Z,14.03
2019-06-01T04:03:15.325Z,14.14
2019-06-01T04:05:48.503Z,14.24
2019-06-01T04:08:21.522Z,14.38
2019-06-01T04:10:54.202Z,14.49
2019-06-01T04:13:27.892Z,14.59
2019-06-01T04:16:01.737Z,14.67
2019-06-01T04:18:34.494Z,14.74
2019-06-01T04:21:08.132Z,14.81
2019-06-01T04:23:41.144Z,14.87
2019-06-01T04:26:13.942Z,15.00
2019-06-01T04:28:46.534Z,15.21
2019-06-01T04:31:20.665Z,15.35
2019-06-01T04:33:53.602Z,15.42
2019-06-01T04:36:26.373Z,15.50
2019-06-01T04:38:59.302Z,15.65
2019-06-01T04:41:32.222Z,15.81
2019-06-01T04:44:05.882Z,15.93
2019-06-01T04:46:38.813Z,16.07
2019-06-01T04:49:13.282Z,16.30
2019-06-01T04:51:46.175Z,16.52
2019-06-01T04:54:18.906Z,16.74
2019-06-01T04:56:51.532Z,16.92
2019-06-01T04:59:24.731Z,17.10
2019-06-01T05:01:57.422Z,17.25
2019-06-01T05:04:30.093Z,17.37
2019-06-01T05:07:02.692Z,17.49
2019-06-01T05:09:35.682Z,17.64
2019-06-01T05:12:09.252Z,17.83
2019-06-01T05:14:42.327Z,17.97
2019-06-01T05:17:16.720Z,18.14
2019-06-01T05:19:50.706Z,18.28
2019-06-01T05:22:23.573Z,18.41
2019-06-01T05:24:56.654Z,18.52
2019-06-01T05:27:30.222Z,18.64
2019-06-01T05:30:03.650Z,18.76
2019-06-01T05:32:36.413Z,18.93
2019-06-01T05:35:10.105Z,19.10
2019-06-01T05:37:42.912Z,19.25
2019-06-01T05:40:16.648Z,19.43
2019-06-01T05:42:50.202Z,19.54
2019-06-01T05:45:23.233Z,19.69
2019-06-01T05:47:56.092Z,19.82
2019-06-01T05:50:29.032Z,19.99
2019-06-01T05:53:01.747Z,20.18
2019-06-01T05:55:35.112Z,20.29
2019-06-01T05:58:07.833Z,20.40
2019-06-01T06:00:42.562Z,20.54
2019-06-01T06:03:19.070Z,20.70
2019-06-01T06:05:49.932Z,20.71
2019-06-01T06:08:23.952Z,20.79
2019-06-01T06:10:56.702Z,20.85
2019-06-01T06:13:29.620Z,20.90
2019-06-01T06:16:02.473Z,21.00
2019-06-01T06:18:35.582Z,21.14
2019-06-01T06:21:08.292Z,21.22
2019-06-01T06:23:41.180Z,21.38
2019-06-01T06:26:15.506Z,21.54
2019-06-01T06:28:48.367Z,21.73
2019-06-01T06:31:21.242Z,21.99
2019-06-01T06:33:56.836Z,22.10
2019-06-01T06:36:28.692Z,22.14
2019-06-01T06:39:04.635Z,22.35
2019-06-01T06:41:37.062Z,22.54
2019-06-01T06:44:09.780Z,22.77
2019-06-01T06:46:42.445Z,23.01
2019-06-01T06:49:15.137Z,23.32
2019-06-01T06:51:47.782Z,23.45
2019-06-01T06:54:20.359Z,23.83
2019-06-01T06:56:53.033Z,24.04
2019-06-01T06:59:26.926Z,23.63
2019-06-01T07:01:59.724Z,23.41
2019-06-01T07:04:32.641Z,23.62
2019-06-01T07:07:05.508Z,23.37
2019-06-01T07:09:38.172Z,23.01
2019-06-01T07:12:10.722Z,23.50
2019-06-01T07:14:43.534Z,23.44
2019-06-01T07:17:16.320Z,23.13
2019-06-01T07:19:50.029Z,22.62
2019-06-01T07:22:23.794Z,22.27
2019-06-01T07:24:56.392Z,21.80
2019-06-01T07:27:29.239Z,21.47
2019-06-01T07:30:01.793Z,21.92
2019-06-01T07:32:34.645Z,22.62
2019-06-01T07:35:07.472Z,23.43
2019-06-01T07:37:39.982Z,24.19
2019-06-01T07:40:13.878Z,24.43
2019-06-01T07:42:47.302Z,24.55
2019-06-01T07:45:20.808Z,24.04
2019-06-01T07:47:53.385Z,23.32
2019-06-01T07:50:26.041Z,22.75
2019-06-01T07:52:58.872Z,22.33
2019-06-01T07:55:31.740Z,22.13
2019-06-01T07:58:04.582Z,22.13
2019-06-01T08:00:37.432Z,22.00
2019-06-01T08:03:10.192Z,21.96
2019-06-01T08:05:42.752Z,22.05
2019-06-01T08:08:15.702Z,22.20
2019-06-01T08:10:49.114Z,22.55
2019-06-01T08:13:21.704Z,23.27
2019-06-01T08:15:54.762Z,24.04
2019-06-01T08:18:28.261Z,24.55
2019-06-01T08:21:00.973Z,24.55
2019-06-01T08:23:33.518Z,23.87
2019-06-01T08:26:06.133Z,22.98
2019-06-01T08:28:38.723Z,22.98
2019-06-01T08:31:11.352Z,23.50
2019-06-01T08:33:43.802Z,23.50
2019-06-01T08:36:16.342Z,24.39
2019-06-01T08:38:48.813Z,25.29
2019-06-01T08:41:21.753Z,26.00
2019-06-01T08:43:54.533Z,25.66
2019-06-01T08:46:27.783Z,25.46
2019-06-01T08:49:00.562Z,25.36
2019-06-01T08:51:34.173Z,25.72
2019-06-01T08:54:06.972Z,25.40
2019-06-01T08:56:39.972Z,25.01
2019-06-01T08:59:13.882Z,24.13
2019-06-01T09:01:47.863Z,24.29
2019-06-01T09:04:20.933Z,25.00
2019-06-01T09:06:53.703Z,25.56
2019-06-01T09:09:26.897Z,25.80
2019-06-01T09:11:59.665Z,26.33
2019-06-01T09:14:35.559Z,26.77
2019-06-01T09:17:08.243Z,27.15
2019-06-01T09:19:41.003Z,27.06
2019-06-01T09:22:14.133Z,26.69
2019-06-01T09:24:46.916Z,26.70
2019-06-01T09:27:20.032Z,26.24
2019-06-01T09:29:52.683Z,26.67
2019-06-01T09:32:26.070Z,27.15
2019-06-01T09:34:58.862Z,27.59
2019-06-01T09:37:32.534Z,26.98
2019-06-01T09:40:05.552Z,26.13
2019-06-01T09:42:39.062Z,25.93
2019-06-01T09:45:12.073Z,26.58
2019-06-01T09:47:45.212Z,26.41
2019-06-01T09:50:18.019Z,26.81
2019-06-01T09:52:50.700Z,26.21
2019-06-01T09:55:23.912Z,25.57
2019-06-01T09:57:56.784Z,26.03
2019-06-01T10:00:30.327Z,26.59
2019-06-01T10:03:03.192Z,27.29
2019-06-01T10:05:38.638Z,27.63
2019-06-01T10:08:12.107Z,27.82
2019-06-01T10:10:44.983Z,28.17
2019-06-01T10:13:17.757Z,28.14
2019-06-01T10:15:52.452Z,28.10
2019-06-01T10:18:27.214Z,27.96
2019-06-01T10:21:01.023Z,28.12
2019-06-01T10:23:34.530Z,28.02
2019-06-01T10:26:07.835Z,28.43
2019-06-01T10:28:41.893Z,28.89
2019-06-01T10:31:16.076Z,29.06
2019-06-01T10:33:51.543Z,29.35
2019-06-01T10:36:24.532Z,29.14
2019-06-01T10:38:57.452Z,29.33
2019-06-01T10:41:31.230Z,29.38
2019-06-01T10:44:03.894Z,29.44
2019-06-01T10:46:37.608Z,28.77
2019-06-01T10:49:10.783Z,29.20
2019-06-01T10:51:43.732Z,29.55
2019-06-01T10:54:16.617Z,28.91
2019-06-01T10:56:49.305Z,27.90
2019-06-01T10:59:22.472Z,27.69
2019-06-01T11:01:55.302Z,28.30
2019-06-01T11:04:29.254Z,28.56
2019-06-01T11:09:34.820Z,28.72
2019-06-01T11:12:07.614Z,27.68
2019-06-01T11:14:41.330Z,27.45
2019-06-01T11:17:14.134Z,27.28
2019-06-01T11:19:48.502Z,28.09
2019-06-01T11:22:21.437Z,27.86
2019-06-01T11:24:54.342Z,27.48
2019-06-01T11:27:27.184Z,26.83
2019-06-01T11:29:59.997Z,26.39
2019-06-01T11:32:33.744Z,26.17
2019-06-01T11:35:08.093Z,26.05
2019-06-01T11:37:40.822Z,25.97
2019-06-01T11:40:13.586Z,25.84
2019-06-01T11:42:46.438Z,25.72
2019-06-01T11:45:19.230Z,25.58
2019-06-01T11:47:51.752Z,25.40
2019-06-01T11:50:24.482Z,25.22
2019-06-01T11:52:57.334Z,25.39
2019-06-01T11:55:30.223Z,25.76
2019-06-01T11:58:03.101Z,25.65
2019-06-01T12:00:37.435Z,25.42
2019-06-01T12:03:10.347Z,25.19
2019-06-01T12:05:46.079Z,24.86
2019-06-01T12:08:17.923Z,24.67
2019-06-01T12:10:50.923Z,24.70
2019-06-01T12:13:23.612Z,24.72
2019-06-01T12:15:56.563Z,25.18
2019-06-01T12:18:29.612Z,26.49
2019-06-01T12:21:02.357Z,27.30
2019-06-01T12:23:35.053Z,27.19
2019-06-01T12:26:07.773Z,26.70
2019-06-01T12:28:41.545Z,26.53
2019-06-01T12:31:14.463Z,27.42
2019-06-01T12:33:48.669Z,27.58
2019-06-01T12:36:21.796Z,27.00
2019-06-01T12:38:54.672Z,27.18
2019-06-01T12:41:27.532Z,26.96
2019-06-01T12:44:12.612Z,26.51
2019-06-01T12:46:46.820Z,27.10
2019-06-01T12:49:19.923Z,26.67
2019-06-01T12:51:53.127Z,26.06
2019-06-01T12:54:25.862Z,26.81
2019-06-01T12:56:58.674Z,27.30
2019-06-01T12:59:31.312Z,27.37
2019-06-01T13:02:03.922Z,26.67
2019-06-01T13:04:36.563Z,26.88
2019-06-01T13:07:09.355Z,27.54
2019-06-01T13:09:42.064Z,28.00
2019-06-01T13:12:14.824Z,27.97
2019-06-01T13:14:47.671Z,27.37
2019-06-01T13:17:20.546Z,26.84
2019-06-01T13:19:53.272Z,26.97
2019-06-01T13:22:26.106Z,26.90
2019-06-01T13:24:58.775Z,26.82
2019-06-01T13:27:31.442Z,26.51
2019-06-01T13:30:04.425Z,25.95
2019-06-01T13:32:37.333Z,25.58
2019-06-01T13:35:11.102Z,25.79
2019-06-01T13:37:44.516Z,26.30
2019-06-01T13:40:17.302Z,27.22
2019-06-01T13:42:51.104Z,27.85
2019-06-01T13:45:23.902Z,28.15
2019-06-01T13:47:56.515Z,28.19
2019-06-01T13:50:29.062Z,28.22
2019-06-01T13:53:01.604Z,28.12
2019-06-01T13:55:34.186Z,27.91
2019-06-01T13:58:06.773Z,27.42
2019-06-01T14:00:39.623Z,27.75
2019-06-01T14:03:12.027Z,28.10
2019-06-01T14:05:44.756Z,28.19
2019-06-01T14:08:28.422Z,28.41
2019-06-01T14:10:51.764Z,28.63
2019-06-01T14:13:24.342Z,28.71
2019-06-01T14:15:56.813Z,29.01
2019-06-01T14:18:29.403Z,29.29
2019-06-01T14:21:02.033Z,29.42
2019-06-01T14:23:34.836Z,29.54
2019-06-01T14:26:07.433Z,29.54
2019-06-01T14:28:39.842Z,29.62
2019-06-01T14:31:12.242Z,29.65
2019-06-01T14:33:46.380Z,29.55
2019-06-01T14:36:18.954Z,29.44
2019-06-01T14:38:54.304Z,29.14
2019-06-01T14:41:25.653Z,28.96
2019-06-01T14:43:58.455Z,28.75
2019-06-01T14:46:30.983Z,28.53
2019-06-01T14:49:03.591Z,28.38
2019-06-01T14:51:36.099Z,28.36
2019-06-01T14:54:08.783Z,28.26
2019-06-01T14:56:41.393Z,28.16
2019-06-01T14:59:14.002Z,28.19
2019-06-01T15:01:48.194Z,28.19
2019-06-01T15:04:20.762Z,28.34
2019-06-01T15:06:54.364Z,28.18
2019-06-01T15:09:26.945Z,28.07
2019-06-01T15:11:59.438Z,28.13
2019-06-01T15:14:32.039Z,28.02
2019-06-01T15:17:04.715Z,27.94
2019-06-01T15:19:37.786Z,27.82
2019-06-01T15:22:11.833Z,27.70
2019-06-01T15:24:44.342Z,27.68
2019-06-01T15:27:16.822Z,27.42
2019-06-01T15:29:50.621Z,27.32
2019-06-01T15:32:26.459Z,27.34
2019-06-01T15:34:59.877Z,27.35
2019-06-01T15:37:32.292Z,27.23
2019-06-01T15:40:05.032Z,27.16
2019-06-01T15:42:37.943Z,27.09
2019-06-01T15:45:11.295Z,27.08
2019-06-01T15:47:43.934Z,26.93
2019-06-01T15:50:17.752Z,26.87
2019-06-01T15:52:50.522Z,26.89
2019-06-01T15:55:23.112Z,26.92
2019-06-01T15:57:56.550Z,26.88
2019-06-01T16:00:29.096Z,26.73
2019-06-01T16:03:01.633Z,26.60
2019-06-01T16:05:34.056Z,26.52
2019-06-01T16:08:06.722Z,26.38
2019-06-01T16:10:39.312Z,26.26
2019-06-01T16:13:11.715Z,26.04
2019-06-01T16:15:44.302Z,25.86
2019-06-01T16:18:17.192Z,25.67
2019-06-01T16:20:49.942Z,25.68
2019-06-01T16:23:24.433Z,25.58
2019-06-01T16:26:07.516Z,25.48
2019-06-01T16:28:31.102Z,25.44
2019-06-01T16:31:04.809Z,25.44
2019-06-01T16:33:38.562Z,25.37
2019-06-01T16:36:10.997Z,25.28
2019-06-01T16:38:44.682Z,25.18
2019-06-01T16:41:17.152Z,25.06
2019-06-01T16:43:49.623Z,24.89
2019-06-01T16:46:22.205Z,24.72
2019-06-01T16:48:55.438Z,24.63
2019-06-01T16:51:29.632Z,24.63
2019-06-01T16:54:02.231Z,24.62
2019-06-01T16:56:34.992Z,24.57
2019-06-01T16:59:07.991Z,24.43
2019-06-01T17:01:40.563Z,24.31
2019-06-01T17:04:13.117Z,24.23
2019-06-01T17:06:46.791Z,24.20
2019-06-01T17:09:19.587Z,24.10
2019-06-01T17:11:52.063Z,24.03
2019-06-01T17:14:24.662Z,23.96
2019-06-01T17:16:57.302Z,23.88
2019-06-01T17:19:29.922Z,23.83
2019-06-01T17:22:03.570Z,23.80
2019-06-01T17:24:36.227Z,23.73
2019-06-01T17:27:09.020Z,23.68
2019-06-01T17:29:41.609Z,23.58
2019-06-01T17:32:23.837Z,23.52
2019-06-01T17:34:48.863Z,23.39
2019-06-01T17:37:21.732Z,23.28
2019-06-01T17:39:54.252Z,23.17
2019-06-01T17:42:26.707Z,23.07
2019-06-01T17:45:00.715Z,22.96
2019-06-01T17:47:34.501Z,22.81
2019-06-01T17:50:07.733Z,22.63
2019-06-01T17:52:40.602Z,22.47
2019-06-01T17:55:29.914Z,22.32
2019-06-01T17:58:03.542Z,22.17
2019-06-01T18:00:36.405Z,21.99
2019-06-01T18:03:10.075Z,21.85
2019-06-01T18:05:43.823Z,21.70
2019-06-01T18:08:16.233Z,21.58
2019-06-01T18:10:54.474Z,21.47
2019-06-01T18:13:23.484Z,21.33
2019-06-01T18:15:56.032Z,21.15
2019-06-01T18:18:28.593Z,21.11
2019-06-01T18:21:02.240Z,21.04
2019-06-01T18:23:34.986Z,20.94
2019-06-01T18:26:08.966Z,20.80
2019-06-01T18:28:42.112Z,20.69
2019-06-01T18:31:14.663Z,20.59
2019-06-01T18:33:47.243Z,20.50
2019-06-01T18:36:19.813Z,20.40
2019-06-01T18:38:52.383Z,20.36
2019-06-01T18:41:25.011Z,20.36
2019-06-01T18:43:57.518Z,20.36
2019-06-01T18:46:30.282Z,20.19
2019-06-01T18:49:03.792Z,20.06
2019-06-01T18:51:37.606Z,19.89
2019-06-01T18:54:10.778Z,19.80
2019-06-01T18:56:43.519Z,19.67
2019-06-01T18:59:15.946Z,19.58
2019-06-01T19:01:48.512Z,19.50
2019-06-01T19:04:21.462Z,19.50
2019-06-01T19:06:54.042Z,19.41
2019-06-01T19:09:26.582Z,19.35
2019-06-01T19:11:59.173Z,19.33
2019-06-01T19:14:32.447Z,19.32
2019-06-01T19:17:06.226Z,19.27
2019-06-01T19:19:38.854Z,19.21
2019-06-01T19:22:12.509Z,19.16
2019-06-01T19:24:44.912Z,19.12
2019-06-01T19:27:17.502Z,19.12
2019-06-01T19:29:49.942Z,19.14
2019-06-01T19:32:22.944Z,19.13
2019-06-01T19:34:55.392Z,19.09
2019-06-01T19:37:28.100Z,19.07
2019-06-01T19:40:00.684Z,19.06
2019-06-01T19:42:33.273Z,19.04
2019-06-01T19:45:13.972Z,19.00
2019-06-01T19:47:40.573Z,18.86
2019-06-01T19:50:14.293Z,18.69
2019-06-01T19:52:46.892Z,18.48
2019-06-01T19:55:19.814Z,18.30
2019-06-01T19:57:52.443Z,18.12
2019-06-01T20:00:24.832Z,17.97
2019-06-01T20:02:57.434Z,17.84
2019-06-01T20:05:30.023Z,17.72
2019-06-01T20:08:14.269Z,17.61
2019-06-01T20:10:56.032Z,17.56
2019-06-01T20:13:36.832Z,17.50
2019-06-01T20:16:10.713Z,17.41
2019-06-01T20:18:43.202Z,17.32
2019-06-01T20:21:15.879Z,17.26
2019-06-01T20:23:48.423Z,17.24
2019-06-01T20:26:22.736Z,17.20
2019-06-01T20:28:55.313Z,17.15
2019-06-01T20:31:27.882Z,17.13
2019-06-01T20:34:00.435Z,17.09
2019-06-01T20:36:33.078Z,17.05
2019-06-01T20:39:08.206Z,17.04
2019-06-01T20:41:41.212Z,16.99
2019-06-01T20:44:14.732Z,16.98
2019-06-01T20:46:48.722Z,16.96
2019-06-01T20:49:22.675Z,16.94
2019-06-01T20:51:55.894Z,16.91
2019-06-01T20:54:28.504Z,16.87
2019-06-01T20:57:01.199Z,16.85
2019-06-01T20:59:33.763Z,16.82
2019-06-01T21:02:07.238Z,16.77
2019-06-01T21:04:39.868Z,16.75
2019-06-01T21:07:13.732Z,16.74
2019-06-01T21:09:46.628Z,16.72
2019-06-01T21:12:38.366Z,16.70
2019-06-01T21:14:55.953Z,16.64
2019-06-01T21:17:28.653Z,16.60
2019-06-01T21:20:04.502Z,16.60
2019-06-01T21:22:35.802Z,16.61
2019-06-01T21:25:09.162Z,16.62
2019-06-01T21:27:42.141Z,16.60
2019-06-01T21:30:16.933Z,16.56
2019-06-01T21:32:50.113Z,16.54
2019-06-01T21:35:23.463Z,16.50
2019-06-01T21:37:57.463Z,16.47
2019-06-01T21:40:30.362Z,16.42
2019-06-01T21:43:22.929Z,16.35
2019-06-01T21:45:37.682Z,16.31
2019-06-01T21:48:10.662Z,16.27
2019-06-01T21:50:43.552Z,16.23
2019-06-01T21:53:17.856Z,16.19
2019-06-01T21:55:50.902Z,16.12
2019-06-01T21:58:24.527Z,16.06
2019-06-01T22:00:57.714Z,16.03
2019-06-01T22:03:30.803Z,16.01
2019-06-01T22:06:05.862Z,15.97
2019-06-01T22:08:39.155Z,15.93
2019-06-01T22:11:11.923Z,15.85
2019-06-01T22:13:44.670Z,15.79
2019-06-01T22:16:19.428Z,15.75
2019-06-01T22:18:52.433Z,15.69
2019-06-01T22:21:25.884Z,15.65
2019-06-01T22:23:58.772Z,15.55
2019-06-01T22:26:31.561Z,15.47
2019-06-01T22:29:04.754Z,15.40
2019-06-01T22:31:38.764Z,15.37
2019-06-01T22:34:12.944Z,15.37
2019-06-01T22:36:46.565Z,15.36
2019-06-01T22:39:20.919Z,15.32
2019-06-01T22:41:53.877Z,15.30
2019-06-01T22:44:28.292Z,15.29
2019-06-01T22:47:01.106Z,15.27
2019-06-01T22:49:33.764Z,15.26
2019-06-01T22:52:06.905Z,15.23
2019-06-01T22:54:40.104Z,15.16
2019-06-01T22:57:13.354Z,15.05
2019-06-01T22:59:46.344Z,14.96
2019-06-01T23:02:21.541Z,14.91
2019-06-01T23:04:54.606Z,14.87
2019-06-01T23:07:29.274Z,14.86
2019-06-01T23:10:02.134Z,14.88
2019-06-01T23:12:35.456Z,14.91
2019-06-01T23:15:08.637Z,14.89
2019-06-01T23:17:41.204Z,14.88
2019-06-01T23:20:14.224Z,14.86
2019-06-01T23:22:47.034Z,14.78
2019-06-01T23:25:19.934Z,14.75
2019-06-01T23:27:52.795Z,14.71
2019-06-01T23:30:26.357Z,14.66
2019-06-01T23:32:59.354Z,14.64
2019-06-01T23:35:32.774Z,14.68
2019-06-01T23:38:06.203Z,14.69
2019-06-01T23:40:39.755Z,14.67
2019-06-01T23:43:12.463Z,14.64
2019-06-01T23:45:45.514Z,14.62
2019-06-01T23:48:19.706Z,14.59
2019-06-01T23:50:52.556Z,14.54
2019-06-01T23:53:25.519Z,14.46
2019-06-01T23:55:58.775Z,14.42
2019-06-01T23:58:32.625Z,14.41
